createdAt,value
2017-03-26T00:00:31.479Z,0
2017-03-26T00:01:32.087Z,0
2017-03-26T00:02:31.554Z,0
2017-03-26T00:03:31.880Z,0
2017-03-26T00:04:30.981Z,0
2017-03-26T00:05:31.626Z,0
2017-03-26T00:06:32.218Z,0
2017-03-26T00:07:31.996Z,0
2017-03-26T00:08:31.396Z,0
2017-03-26T00:09:31.745Z,0
2017-03-26T00:10:32.082Z,0
2017-03-26T00:11:32.366Z,0
2017-03-26T00:12:31.828Z,0
2017-03-26T00:13:31.223Z,0
2017-03-26T00:14:31.876Z,0
2017-03-26T00:15:31.907Z,0
2017-03-26T00:16:32.173Z,0
2017-03-26T00:17:32.271Z,0
2017-03-26T00:18:31.677Z,0
2017-03-26T00:19:32.016Z,0
2017-03-26T00:20:32.354Z,0
2017-03-26T00:21:32.319Z,0
2017-03-26T00:22:32.092Z,0
2017-03-26T00:23:32.141Z,0
2017-03-26T00:24:31.840Z,0
2017-03-26T00:25:31.868Z,0
2017-03-26T00:26:32.150Z,0
2017-03-26T00:27:32.234Z,0
2017-03-26T00:28:31.955Z,0
2017-03-26T00:29:31.984Z,0
2017-03-26T00:30:32.368Z,0
2017-03-26T00:31:32.914Z,0
2017-03-26T00:32:32.091Z,0
2017-03-26T00:33:32.404Z,0
2017-03-26T00:34:32.732Z,0
2017-03-26T00:35:32.768Z,0
2017-03-26T00:36:32.425Z,0
2017-03-26T00:37:32.827Z,0
2017-03-26T00:38:32.864Z,0
2017-03-26T00:39:32.881Z,0
2017-03-26T00:40:32.908Z,0
2017-03-26T00:41:33.201Z,0
2017-03-26T00:42:32.371Z,0
2017-03-26T00:43:32.990Z,0
2017-03-26T00:44:33.019Z,0
2017-03-26T00:45:32.741Z,0
2017-03-26T00:46:33.029Z,0
2017-03-26T00:47:33.100Z,0
2017-03-26T00:48:32.814Z,0
2017-03-26T00:49:32.856Z,0
2017-03-26T00:50:32.573Z,0
2017-03-26T00:51:32.841Z,0
2017-03-26T00:52:33.249Z,0
2017-03-26T00:53:33.273Z,0
2017-03-26T00:54:32.989Z,0
2017-03-26T00:55:33.012Z,0
2017-03-26T00:56:32.979Z,0
2017-03-26T00:57:32.793Z,0
2017-03-26T00:58:33.487Z,0
2017-03-26T00:59:33.115Z,0
2017-03-26T01:00:32.535Z,0
2017-03-26T01:01:33.754Z,0
2017-03-26T01:02:33.507Z,0
2017-03-26T01:03:33.246Z,0
2017-03-26T01:04:33.582Z,0
2017-03-26T01:05:32.965Z,0
2017-03-26T01:06:33.883Z,0
2017-03-26T01:07:33.344Z,0
2017-03-26T01:08:33.062Z,0
2017-03-26T01:09:33.404Z,0
2017-03-26T01:10:33.110Z,0
2017-03-26T01:11:33.708Z,0
2017-03-26T01:12:33.792Z,0
2017-03-26T01:13:33.202Z,0
2017-03-26T01:14:33.846Z,0
2017-03-26T01:15:33.251Z,0
2017-03-26T01:16:33.846Z,0
2017-03-26T01:17:33.621Z,0
2017-03-26T01:18:33.658Z,0
2017-03-26T01:19:33.675Z,0
2017-03-26T01:20:33.722Z,0
2017-03-26T01:21:33.987Z,0
2017-03-26T01:22:33.775Z,0
2017-03-26T01:23:33.809Z,0
2017-03-26T01:24:33.506Z,0
2017-03-26T01:25:34.159Z,0
2017-03-26T01:26:34.430Z,0
2017-03-26T01:27:34.217Z,0
2017-03-26T01:28:34.237Z,0
2017-03-26T01:29:33.634Z,0
2017-03-26T01:30:34.285Z,0
2017-03-26T01:31:34.256Z,0
2017-03-26T01:32:34.037Z,0
2017-03-26T01:33:34.062Z,0
2017-03-26T01:34:34.089Z,0
2017-03-26T01:35:34.126Z,0
2017-03-26T01:36:34.085Z,0
2017-03-26T01:37:34.184Z,0
2017-03-26T01:38:34.516Z,0
2017-03-26T01:39:34.545Z,0
2017-03-26T01:40:34.569Z,0
2017-03-26T01:41:34.554Z,0
2017-03-26T01:42:34.619Z,0
2017-03-26T01:43:34.387Z,0
2017-03-26T01:44:34.368Z,0
2017-03-26T01:45:34.389Z,0
2017-03-26T01:46:34.424Z,0
2017-03-26T01:47:34.112Z,0
2017-03-26T01:48:34.787Z,0
2017-03-26T01:49:34.817Z,0
2017-03-26T01:50:34.213Z,0
2017-03-26T01:51:34.562Z,0
2017-03-26T01:52:34.825Z,0
2017-03-26T01:53:34.619Z,0
2017-03-26T01:54:34.652Z,0
2017-03-26T01:55:34.977Z,0
2017-03-26T01:56:35.005Z,0
2017-03-26T01:57:34.662Z,0
2017-03-26T01:58:35.068Z,0
2017-03-26T01:59:34.792Z,0
2017-03-26T02:00:34.799Z,0
2017-03-26T02:01:35.147Z,0
2017-03-26T02:02:35.114Z,0
2017-03-26T02:03:34.887Z,0
2017-03-26T02:04:35.234Z,0
2017-03-26T02:05:34.937Z,0
2017-03-26T02:06:34.968Z,0
2017-03-26T02:07:35.245Z,0
2017-03-26T02:08:35.330Z,0
2017-03-26T02:09:35.363Z,0
2017-03-26T02:10:35.084Z,0
2017-03-26T02:11:34.801Z,0
2017-03-26T02:12:35.691Z,0
2017-03-26T02:13:35.159Z,0
2017-03-26T02:14:34.879Z,0
2017-03-26T02:15:35.523Z,0
2017-03-26T02:16:34.620Z,0
2017-03-26T02:17:35.824Z,0
2017-03-26T02:18:34.695Z,0
2017-03-26T02:19:34.698Z,0
2017-03-26T02:20:35.355Z,0
2017-03-26T02:21:35.375Z,0
2017-03-26T02:22:35.969Z,0
2017-03-26T02:23:35.746Z,0
2017-03-26T02:24:35.787Z,0
2017-03-26T02:25:35.797Z,0
2017-03-26T02:26:35.209Z,0
2017-03-26T02:27:36.113Z,0
2017-03-26T02:28:35.573Z,0
2017-03-26T02:29:35.294Z,0
2017-03-26T02:30:35.621Z,0
2017-03-26T02:31:35.335Z,0
2017-03-26T02:32:35.933Z,0
2017-03-26T02:33:34.769Z,0
2017-03-26T02:34:35.109Z,0
2017-03-26T02:35:35.762Z,0
2017-03-26T02:36:35.791Z,0
2017-03-26T02:37:36.078Z,0
2017-03-26T02:38:35.853Z,0
2017-03-26T02:39:35.246Z,0
2017-03-26T02:40:35.267Z,0
2017-03-26T02:41:35.610Z,0
2017-03-26T02:42:36.521Z,0
2017-03-26T02:43:35.361Z,0
2017-03-26T02:44:36.012Z,0
2017-03-26T02:45:36.030Z,0
2017-03-26T02:46:36.383Z,0
2017-03-26T02:47:36.049Z,0
2017-03-26T02:48:35.821Z,0
2017-03-26T02:49:35.832Z,0
2017-03-26T02:50:36.481Z,0
2017-03-26T02:51:35.879Z,0
2017-03-26T02:52:36.794Z,0
2017-03-26T02:53:35.944Z,0
2017-03-26T02:54:36.290Z,0
2017-03-26T02:55:36.617Z,0
2017-03-26T02:56:36.647Z,0
2017-03-26T02:57:36.622Z,0
2017-03-26T02:58:36.102Z,0
2017-03-26T02:59:36.744Z,0
2017-03-26T03:00:36.758Z,0
2017-03-26T03:01:36.462Z,0
2017-03-26T03:02:36.759Z,0
2017-03-26T03:03:36.520Z,0
2017-03-26T03:04:36.560Z,0
2017-03-26T03:05:36.573Z,0
2017-03-26T03:06:36.923Z,0
2017-03-26T03:07:37.198Z,0
2017-03-26T03:08:36.361Z,0
2017-03-26T03:09:36.692Z,0
2017-03-26T03:10:36.409Z,0
2017-03-26T03:11:36.745Z,0
2017-03-26T03:12:37.026Z,0
2017-03-26T03:13:36.799Z,0
2017-03-26T03:14:36.822Z,0
2017-03-26T03:15:36.852Z,0
2017-03-26T03:16:37.185Z,0
2017-03-26T03:17:37.170Z,0
2017-03-26T03:18:37.251Z,0
2017-03-26T03:19:37.292Z,0
2017-03-26T03:20:37.309Z,0
2017-03-26T03:21:37.047Z,0
2017-03-26T03:22:37.289Z,0
2017-03-26T03:23:37.083Z,0
2017-03-26T03:24:37.439Z,0
2017-03-26T03:25:36.815Z,0
2017-03-26T03:26:36.832Z,0
2017-03-26T03:27:37.133Z,0
2017-03-26T03:28:37.206Z,0
2017-03-26T03:29:37.227Z,0
2017-03-26T03:30:37.264Z,0
2017-03-26T03:31:37.607Z,0
2017-03-26T03:32:37.250Z,0
2017-03-26T03:33:37.654Z,0
2017-03-26T03:34:37.694Z,0
2017-03-26T03:35:37.092Z,0
2017-03-26T03:36:37.100Z,0
2017-03-26T03:37:37.393Z,0
2017-03-26T03:38:37.797Z,0
2017-03-26T03:39:37.502Z,0
2017-03-26T03:40:37.215Z,0
2017-03-26T03:41:37.559Z,0
2017-03-26T03:42:37.840Z,0
2017-03-26T03:43:37.934Z,0
2017-03-26T03:44:37.958Z,0
2017-03-26T03:45:37.358Z,0
2017-03-26T03:46:37.371Z,0
2017-03-26T03:47:38.296Z,0
2017-03-26T03:48:38.058Z,0
2017-03-26T03:49:37.777Z,0
2017-03-26T03:50:37.498Z,0
2017-03-26T03:51:38.143Z,0
2017-03-26T03:52:38.107Z,0
2017-03-26T03:53:38.209Z,0
2017-03-26T03:54:37.609Z,0
2017-03-26T03:55:38.251Z,0
2017-03-26T03:56:37.969Z,0
2017-03-26T03:57:38.564Z,0
2017-03-26T03:58:38.027Z,0
2017-03-26T03:59:38.365Z,0
2017-03-26T04:00:38.390Z,0
2017-03-26T04:01:37.791Z,0
2017-03-26T04:02:38.178Z,0
2017-03-26T04:03:38.727Z,0
2017-03-26T04:04:38.497Z,0
2017-03-26T04:05:37.598Z,0
2017-03-26T04:06:38.295Z,0
2017-03-26T04:07:38.569Z,0
2017-03-26T04:08:38.871Z,0
2017-03-26T04:09:38.025Z,0
2017-03-26T04:10:37.730Z,0
2017-03-26T04:11:38.370Z,0
2017-03-26T04:12:38.407Z,0
2017-03-26T04:13:38.695Z,0
2017-03-26T04:14:38.456Z,0
2017-03-26T04:15:38.790Z,0
2017-03-26T04:16:38.518Z,0
2017-03-26T04:17:38.855Z,0
2017-03-26T04:18:39.382Z,0
2017-03-26T04:19:38.909Z,0
2017-03-26T04:20:38.937Z,0
2017-03-26T04:21:38.021Z,0
2017-03-26T04:22:38.667Z,0
2017-03-26T04:23:38.323Z,0
2017-03-26T04:24:39.040Z,0
2017-03-26T04:25:38.756Z,0
2017-03-26T04:26:39.093Z,0
2017-03-26T04:27:37.881Z,0
2017-03-26T04:28:39.086Z,0
2017-03-26T04:29:38.868Z,0
2017-03-26T04:30:39.201Z,0
2017-03-26T04:31:38.626Z,0
2017-03-26T04:32:39.254Z,0
2017-03-26T04:33:39.235Z,0
2017-03-26T04:34:38.684Z,0
2017-03-26T04:35:39.325Z,0
2017-03-26T04:36:39.048Z,0
2017-03-26T04:37:39.085Z,0
2017-03-26T04:38:39.672Z,0
2017-03-26T04:39:39.136Z,0
2017-03-26T04:40:39.149Z,0
2017-03-26T04:41:39.189Z,0
2017-03-26T04:42:38.910Z,0
2017-03-26T04:43:39.802Z,0
2017-03-26T04:44:39.571Z,0
2017-03-26T04:45:39.296Z,0
2017-03-26T04:46:39.624Z,0
2017-03-26T04:47:39.345Z,0
2017-03-26T04:48:39.931Z,0
2017-03-26T04:49:39.394Z,0
2017-03-26T04:50:39.430Z,0
2017-03-26T04:51:39.764Z,0
2017-03-26T04:52:39.493Z,0
2017-03-26T04:53:39.809Z,0
2017-03-26T04:54:39.851Z,0
2017-03-26T04:55:39.874Z,0
2017-03-26T04:56:39.913Z,0
2017-03-26T04:57:39.928Z,0
2017-03-26T04:58:40.214Z,0
2017-03-26T04:59:39.983Z,0
2017-03-26T05:00:40.007Z,0
2017-03-26T05:01:40.039Z,0
2017-03-26T05:02:40.064Z,0
2017-03-26T05:03:40.352Z,0
2017-03-26T05:04:39.806Z,0
2017-03-26T05:05:39.835Z,0
2017-03-26T05:06:40.176Z,0
2017-03-26T05:07:39.893Z,0
2017-03-26T05:08:40.484Z,0
2017-03-26T05:09:39.942Z,0
2017-03-26T05:10:40.278Z,0
2017-03-26T05:11:39.994Z,0
2017-03-26T05:12:40.021Z,0
2017-03-26T05:13:40.301Z,0
2017-03-26T05:14:40.081Z,0
2017-03-26T05:15:40.102Z,0
2017-03-26T05:16:39.819Z,0
2017-03-26T05:17:40.151Z,0
2017-03-26T05:18:40.497Z,0
2017-03-26T05:19:40.513Z,0
2017-03-26T05:20:40.230Z,0
2017-03-26T05:21:40.270Z,0
2017-03-26T05:22:40.603Z,0
2017-03-26T05:23:40.891Z,0
2017-03-26T05:24:40.025Z,0
2017-03-26T05:25:40.686Z,0
2017-03-26T05:26:40.727Z,0
2017-03-26T05:27:40.119Z,0
2017-03-26T05:28:40.392Z,0
2017-03-26T05:29:40.484Z,0
2017-03-26T05:30:40.511Z,0
2017-03-26T05:31:39.903Z,0
2017-03-26T05:32:40.628Z,0
2017-03-26T05:33:40.212Z,0
2017-03-26T05:34:40.932Z,0
2017-03-26T05:35:40.322Z,0
2017-03-26T05:36:40.713Z,0
2017-03-26T05:37:40.697Z,0
2017-03-26T05:38:40.667Z,0
2017-03-26T05:39:41.052Z,0
2017-03-26T05:40:40.778Z,0
2017-03-26T05:41:41.113Z,0
2017-03-26T05:42:39.885Z,0
2017-03-26T05:43:41.415Z,0
2017-03-26T05:44:40.880Z,0
2017-03-26T05:45:40.598Z,0
2017-03-26T05:46:40.621Z,0
2017-03-26T05:47:40.966Z,0
2017-03-26T05:48:41.555Z,0
2017-03-26T05:49:40.712Z,0
2017-03-26T05:50:41.044Z,0
2017-03-26T05:51:41.373Z,0
2017-03-26T05:52:41.406Z,0
2017-03-26T05:53:41.374Z,0
2017-03-26T05:54:41.467Z,0
2017-03-26T05:55:41.487Z,0
2017-03-26T05:56:41.209Z,0
2017-03-26T05:57:40.922Z,0
2017-03-26T05:58:41.831Z,0
2017-03-26T05:59:41.598Z,0
2017-03-26T06:00:41.305Z,0
2017-03-26T06:01:41.652Z,0
2017-03-26T06:02:41.383Z,0
2017-03-26T06:03:41.647Z,0
2017-03-26T06:04:41.731Z,0
2017-03-26T06:05:41.137Z,0
2017-03-26T06:06:41.470Z,5
2017-03-26T06:07:41.505Z,5
2017-03-26T06:08:41.794Z,5
2017-03-26T06:09:41.563Z,5
2017-03-26T06:10:41.267Z,5
2017-03-26T06:11:41.910Z,5
2017-03-26T06:12:41.958Z,5
2017-03-26T06:13:41.601Z,5
2017-03-26T06:14:42.017Z,5
2017-03-26T06:15:41.723Z,5
2017-03-26T06:16:41.747Z,5
2017-03-26T06:17:42.105Z,5
2017-03-26T06:18:42.064Z,5
2017-03-26T06:19:42.146Z,5
2017-03-26T06:20:41.847Z,5
2017-03-26T06:21:41.874Z,5
2017-03-26T06:22:41.906Z,5
2017-03-26T06:23:41.945Z,5
2017-03-26T06:24:41.966Z,5
2017-03-26T06:25:42.298Z,5
2017-03-26T06:26:41.391Z,5
2017-03-26T06:27:42.042Z,5
2017-03-26T06:28:42.326Z,5
2017-03-26T06:29:42.094Z,5
2017-03-26T06:30:42.138Z,5
2017-03-26T06:31:42.152Z,5
2017-03-26T06:32:42.480Z,5
2017-03-26T06:33:42.781Z,5
2017-03-26T06:34:42.550Z,5
2017-03-26T06:35:42.569Z,5
2017-03-26T06:36:41.983Z,5
2017-03-26T06:37:42.624Z,5
2017-03-26T06:38:42.602Z,5
2017-03-26T06:39:42.389Z,5
2017-03-26T06:40:42.391Z,5
2017-03-26T06:41:42.420Z,5
2017-03-26T06:42:41.839Z,5
2017-03-26T06:43:42.728Z,5
2017-03-26T06:44:42.817Z,5
2017-03-26T06:45:41.953Z,5
2017-03-26T06:46:42.875Z,5
2017-03-26T06:47:42.267Z,5
2017-03-26T06:48:43.205Z,5
2017-03-26T06:49:42.325Z,5
2017-03-26T06:50:42.981Z,5
2017-03-26T06:51:43.005Z,5
2017-03-26T06:52:42.728Z,5
2017-03-26T06:53:43.315Z,5
2017-03-26T06:54:42.773Z,5
2017-03-26T06:55:43.109Z,5
2017-03-26T06:56:42.518Z,5
2017-03-26T06:57:42.855Z,5
2017-03-26T06:58:43.159Z,5
2017-03-26T06:59:43.224Z,10
2017-03-26T07:00:43.257Z,10
2017-03-26T07:01:42.959Z,10
2017-03-26T07:02:42.999Z,10
2017-03-26T07:03:43.615Z,10
2017-03-26T07:04:43.052Z,10
2017-03-26T07:05:43.073Z,10
2017-03-26T07:06:42.809Z,10
2017-03-26T07:07:42.891Z,10
2017-03-26T07:08:43.484Z,10
2017-03-26T07:09:43.755Z,10
2017-03-26T07:10:43.538Z,10
2017-03-26T07:11:43.243Z,10
2017-03-26T07:12:43.594Z,10
2017-03-26T07:13:43.291Z,10
2017-03-26T07:14:42.956Z,10
2017-03-26T07:15:43.035Z,10
2017-03-26T07:16:43.680Z,10
2017-03-26T07:17:43.402Z,10
2017-03-26T07:18:43.447Z,10
2017-03-26T07:19:44.031Z,10
2017-03-26T07:20:43.485Z,10
2017-03-26T07:21:43.517Z,10
2017-03-26T07:22:43.853Z,10
2017-03-26T07:23:43.562Z,10
2017-03-26T07:24:43.535Z,10
2017-03-26T07:25:43.981Z,15
2017-03-26T07:26:43.649Z,15
2017-03-26T07:27:43.681Z,20
2017-03-26T07:28:43.399Z,30
2017-03-26T07:29:43.986Z,55
2017-03-26T07:30:43.440Z,70
2017-03-26T07:31:44.097Z,85
2017-03-26T07:32:43.831Z,95
2017-03-26T07:33:43.835Z,95
2017-03-26T07:34:44.135Z,100
2017-03-26T07:35:43.598Z,100
2017-03-26T07:36:43.920Z,105
2017-03-26T07:37:44.261Z,110
2017-03-26T07:38:49.325Z,105
2017-03-26T07:39:44.254Z,105
2017-03-26T07:40:43.418Z,100
2017-03-26T07:41:43.760Z,95
2017-03-26T07:42:44.097Z,90
2017-03-26T07:43:44.146Z,80
2017-03-26T07:44:44.707Z,70
2017-03-26T07:45:44.486Z,65
2017-03-26T07:46:44.512Z,65
2017-03-26T07:47:44.537Z,65
2017-03-26T07:48:44.273Z,65
2017-03-26T07:49:44.546Z,65
2017-03-26T07:50:44.648Z,65
2017-03-26T07:51:44.036Z,65
2017-03-26T07:52:44.061Z,60
2017-03-26T07:53:44.401Z,55
2017-03-26T07:54:45.002Z,50
2017-03-26T07:55:44.463Z,50
2017-03-26T07:56:44.815Z,45
2017-03-26T07:57:44.207Z,45
2017-03-26T07:58:44.566Z,45
2017-03-26T07:59:44.834Z,40
2017-03-26T08:00:44.614Z,40
2017-03-26T08:01:44.319Z,40
2017-03-26T08:02:44.664Z,40
2017-03-26T08:03:45.020Z,35
2017-03-26T08:04:45.341Z,35
2017-03-26T08:05:45.059Z,35
2017-03-26T08:06:44.786Z,35
2017-03-26T08:07:44.492Z,35
2017-03-26T08:08:45.153Z,30
2017-03-26T08:09:45.433Z,30
2017-03-26T08:10:44.613Z,30
2017-03-26T08:11:44.607Z,30
2017-03-26T08:12:44.962Z,25
2017-03-26T08:13:45.299Z,25
2017-03-26T08:14:45.574Z,25
2017-03-26T08:15:44.102Z,25
2017-03-26T08:16:45.058Z,25
2017-03-26T08:17:45.092Z,25
2017-03-26T08:18:45.443Z,20
2017-03-26T08:19:45.093Z,20
2017-03-26T08:20:45.180Z,20
2017-03-26T08:21:45.207Z,20
2017-03-26T08:22:45.564Z,20
2017-03-26T08:23:45.591Z,20
2017-03-26T08:24:45.916Z,20
2017-03-26T08:25:45.327Z,20
2017-03-26T08:26:45.349Z,20
2017-03-26T08:27:45.702Z,20
2017-03-26T08:28:45.411Z,20
2017-03-26T08:29:45.431Z,20
2017-03-26T08:30:45.773Z,20
2017-03-26T08:31:45.807Z,20
2017-03-26T08:32:45.839Z,20
2017-03-26T08:33:45.880Z,20
2017-03-26T08:34:46.140Z,20
2017-03-26T08:35:45.909Z,20
2017-03-26T08:36:45.950Z,20
2017-03-26T08:37:46.007Z,20
2017-03-26T08:38:46.018Z,20
2017-03-26T08:39:46.292Z,20
2017-03-26T08:40:46.048Z,20
2017-03-26T08:41:45.773Z,20
2017-03-26T08:42:46.122Z,20
2017-03-26T08:43:46.148Z,20
2017-03-26T08:44:46.123Z,25
2017-03-26T08:45:45.888Z,25
2017-03-26T08:46:46.226Z,25
2017-03-26T08:47:45.643Z,30
2017-03-26T08:48:46.300Z,40
2017-03-26T08:49:46.262Z,45
2017-03-26T08:50:46.339Z,50
2017-03-26T08:51:46.069Z,60
2017-03-26T08:52:45.770Z,65
2017-03-26T08:53:46.118Z,70
2017-03-26T08:54:46.079Z,70
2017-03-26T08:55:46.491Z,65
2017-03-26T08:56:45.880Z,65
2017-03-26T08:57:46.241Z,60
2017-03-26T08:58:46.267Z,60
2017-03-26T08:59:46.518Z,60
2017-03-26T09:00:46.637Z,60
2017-03-26T09:01:46.341Z,55
2017-03-26T09:02:46.681Z,60
2017-03-26T09:03:46.710Z,60
2017-03-26T09:04:46.670Z,60
2017-03-26T09:05:46.826Z,60
2017-03-26T09:06:46.788Z,65
2017-03-26T09:07:46.509Z,65
2017-03-26T09:08:46.593Z,60
2017-03-26T09:09:46.562Z,60
2017-03-26T09:10:47.161Z,55
2017-03-26T09:11:46.624Z,55
2017-03-26T09:12:46.964Z,50
2017-03-26T09:13:46.684Z,45
2017-03-26T09:14:46.385Z,45
2017-03-26T09:15:47.294Z,40
2017-03-26T09:16:47.067Z,40
2017-03-26T09:17:46.791Z,40
2017-03-26T09:18:46.827Z,40
2017-03-26T09:19:47.145Z,35
2017-03-26T09:20:47.123Z,35
2017-03-26T09:21:47.211Z,35
2017-03-26T09:22:46.968Z,35
2017-03-26T09:23:47.277Z,35
2017-03-26T09:24:46.983Z,35
2017-03-26T09:25:47.262Z,35
2017-03-26T09:26:47.355Z,35
2017-03-26T09:27:46.765Z,35
2017-03-26T09:28:46.792Z,35
2017-03-26T09:29:47.129Z,35
2017-03-26T09:30:47.401Z,35
2017-03-26T09:31:47.490Z,35
2017-03-26T09:32:47.541Z,35
2017-03-26T09:33:47.539Z,35
2017-03-26T09:34:47.268Z,30
2017-03-26T09:35:47.537Z,30
2017-03-26T09:36:47.322Z,30
2017-03-26T09:37:46.744Z,30
2017-03-26T09:38:47.060Z,30
2017-03-26T09:39:47.733Z,30
2017-03-26T09:40:47.997Z,30
2017-03-26T09:41:47.486Z,30
2017-03-26T09:42:47.495Z,30
2017-03-26T09:43:47.839Z,30
2017-03-26T09:44:47.548Z,30
2017-03-26T09:45:48.169Z,30
2017-03-26T09:46:47.927Z,30
2017-03-26T09:47:47.950Z,30
2017-03-26T09:48:47.980Z,30
2017-03-26T09:49:47.701Z,30
2017-03-26T09:50:48.290Z,30
2017-03-26T09:51:47.761Z,30
2017-03-26T09:52:47.782Z,30
2017-03-26T09:53:48.131Z,30
2017-03-26T09:54:47.832Z,30
2017-03-26T09:55:48.116Z,30
2017-03-26T09:56:48.201Z,30
2017-03-26T09:57:47.917Z,30
2017-03-26T09:58:48.311Z,30
2017-03-26T09:59:47.976Z,25
2017-03-26T10:00:48.564Z,25
2017-03-26T10:01:48.017Z,30
2017-03-26T10:02:48.078Z,30
2017-03-26T10:03:48.403Z,30
2017-03-26T10:04:48.463Z,30
2017-03-26T10:05:48.708Z,30
2017-03-26T10:06:48.173Z,30
2017-03-26T10:07:48.524Z,30
2017-03-26T10:08:48.240Z,30
2017-03-26T10:09:48.577Z,30
2017-03-26T10:10:48.537Z,30
2017-03-26T10:11:48.629Z,30
2017-03-26T10:12:48.355Z,35
2017-03-26T10:13:48.391Z,35
2017-03-26T10:14:48.091Z,35
2017-03-26T10:15:48.673Z,35
2017-03-26T10:16:48.768Z,35
2017-03-26T10:17:48.493Z,35
2017-03-26T10:18:48.523Z,35
2017-03-26T10:19:48.269Z,35
2017-03-26T10:20:48.827Z,35
2017-03-26T10:21:48.612Z,35
2017-03-26T10:23:01.057Z,35
2017-03-26T10:23:48.362Z,35
2017-03-26T10:24:48.998Z,40
2017-03-26T10:25:48.644Z,40
2017-03-26T10:26:49.051Z,40
2017-03-26T10:27:48.458Z,40
2017-03-26T10:28:49.111Z,40
2017-03-26T10:29:49.172Z,40
2017-03-26T10:30:48.782Z,40
2017-03-26T10:31:48.880Z,40
2017-03-26T10:32:49.225Z,40
2017-03-26T10:33:49.258Z,40
2017-03-26T10:34:49.279Z,40
2017-03-26T10:35:49.246Z,40
2017-03-26T10:36:49.384Z,40
2017-03-26T10:37:49.054Z,40
2017-03-26T10:38:49.077Z,40
2017-03-26T10:39:49.411Z,40
2017-03-26T10:40:49.704Z,40
2017-03-26T10:41:49.485Z,40
2017-03-26T10:42:49.229Z,40
2017-03-26T10:43:49.230Z,45
2017-03-26T10:44:49.255Z,45
2017-03-26T10:45:49.847Z,45
2017-03-26T10:46:49.632Z,45
2017-03-26T10:47:49.336Z,45
2017-03-26T10:48:49.381Z,45
2017-03-26T10:49:49.390Z,45
2017-03-26T10:50:50.003Z,45
2017-03-26T10:51:49.760Z,45
2017-03-26T10:52:49.793Z,45
2017-03-26T10:53:49.506Z,45
2017-03-26T10:54:49.234Z,45
2017-03-26T10:55:49.811Z,45
2017-03-26T10:56:49.279Z,45
2017-03-26T10:57:49.932Z,45
2017-03-26T10:58:49.337Z,45
2017-03-26T10:59:49.743Z,45
2017-03-26T11:00:49.951Z,45
2017-03-26T11:01:50.048Z,45
2017-03-26T11:02:49.761Z,45
2017-03-26T11:03:50.110Z,45
2017-03-26T11:04:50.141Z,45
2017-03-26T11:05:50.106Z,50
2017-03-26T11:06:49.561Z,50
2017-03-26T11:07:49.916Z,50
2017-03-26T11:08:50.250Z,50
2017-03-26T11:09:50.270Z,55
2017-03-26T11:10:50.238Z,55
2017-03-26T11:11:50.018Z,65
2017-03-26T11:12:49.744Z,80
2017-03-26T11:13:49.761Z,80
2017-03-26T11:14:50.121Z,80
2017-03-26T11:15:50.373Z,80
2017-03-26T11:16:50.471Z,85
2017-03-26T11:17:49.567Z,90
2017-03-26T11:18:50.233Z,95
2017-03-26T11:19:49.943Z,100
2017-03-26T11:20:50.532Z,100
2017-03-26T11:21:50.307Z,105
2017-03-26T11:22:50.019Z,105
2017-03-26T11:23:50.368Z,105
2017-03-26T11:24:50.714Z,110
2017-03-26T11:25:50.978Z,110
2017-03-26T11:26:50.454Z,110
2017-03-26T11:27:50.480Z,110
2017-03-26T11:28:50.211Z,115
2017-03-26T11:29:50.840Z,115
2017-03-26T11:30:50.558Z,115
2017-03-26T11:31:50.528Z,115
2017-03-26T11:32:50.994Z,115
2017-03-26T11:33:50.647Z,115
2017-03-26T11:34:50.998Z,115
2017-03-26T11:35:50.718Z,120
2017-03-26T11:36:51.302Z,120
2017-03-26T11:37:51.143Z,120
2017-03-26T11:38:50.795Z,120
2017-03-26T11:39:50.507Z,120
2017-03-26T11:40:50.536Z,120
2017-03-26T11:41:51.435Z,125
2017-03-26T11:42:51.222Z,125
2017-03-26T11:43:50.959Z,130
2017-03-26T11:44:50.969Z,130
2017-03-26T11:45:51.304Z,135
2017-03-26T11:46:51.261Z,140
2017-03-26T11:47:51.041Z,150
2017-03-26T11:48:51.127Z,175
2017-03-26T11:49:51.111Z,190
2017-03-26T11:50:51.452Z,195
2017-03-26T11:51:51.724Z,200
2017-03-26T11:52:50.890Z,200
2017-03-26T11:53:50.923Z,200
2017-03-26T11:54:51.268Z,200
2017-03-26T11:55:51.276Z,200
2017-03-26T11:56:51.567Z,200
2017-03-26T11:57:51.022Z,200
2017-03-26T11:58:51.692Z,200
2017-03-26T11:59:51.723Z,195
2017-03-26T12:00:51.447Z,195
2017-03-26T12:01:51.412Z,190
2017-03-26T12:02:51.180Z,190
2017-03-26T12:03:51.202Z,190
2017-03-26T12:04:51.602Z,195
2017-03-26T12:05:51.576Z,200
2017-03-26T12:06:51.551Z,200
2017-03-26T12:07:51.965Z,210
2017-03-26T12:08:51.681Z,215
2017-03-26T12:09:51.086Z,225
2017-03-26T12:10:51.420Z,235
2017-03-26T12:11:52.333Z,255
2017-03-26T12:12:52.114Z,280
2017-03-26T12:13:52.154Z,290
2017-03-26T12:14:51.548Z,305
2017-03-26T12:15:52.195Z,300
2017-03-26T12:16:51.856Z,270
2017-03-26T12:17:51.952Z,235
2017-03-26T12:18:51.984Z,220
2017-03-26T12:19:51.703Z,210
2017-03-26T12:20:52.042Z,205
2017-03-26T12:21:52.320Z,205
2017-03-26T12:22:52.429Z,200
2017-03-26T12:23:52.145Z,205
2017-03-26T12:24:52.163Z,195
2017-03-26T12:25:52.506Z,200
2017-03-26T12:26:52.207Z,195
2017-03-26T12:27:51.953Z,195
2017-03-26T12:28:51.988Z,190
2017-03-26T12:29:52.638Z,180
2017-03-26T12:30:52.355Z,175
2017-03-26T12:31:52.975Z,170
2017-03-26T12:32:52.137Z,165
2017-03-26T12:33:52.166Z,160
2017-03-26T12:34:52.485Z,155
2017-03-26T12:35:52.830Z,150
2017-03-26T12:36:52.808Z,150
2017-03-26T12:37:52.584Z,145
2017-03-26T12:38:52.932Z,145
2017-03-26T12:39:52.339Z,145
2017-03-26T12:40:52.998Z,140
2017-03-26T12:41:53.282Z,140
2017-03-26T12:42:53.079Z,140
2017-03-26T12:43:53.099Z,140
2017-03-26T12:44:52.500Z,140
2017-03-26T12:45:53.165Z,140
2017-03-26T12:46:53.435Z,140
2017-03-26T12:47:52.916Z,140
2017-03-26T12:48:52.624Z,140
2017-03-26T12:49:53.292Z,140
2017-03-26T12:50:53.318Z,140
2017-03-26T12:51:53.302Z,135
2017-03-26T12:52:53.068Z,135
2017-03-26T12:53:53.432Z,130
2017-03-26T12:54:53.147Z,130
2017-03-26T12:55:53.477Z,130
2017-03-26T12:56:53.134Z,130
2017-03-26T12:57:53.250Z,130
2017-03-26T12:58:53.600Z,125
2017-03-26T12:59:53.614Z,125
2017-03-26T13:00:53.643Z,125
2017-03-26T13:01:53.633Z,125
2017-03-26T13:02:53.419Z,125
2017-03-26T13:03:53.759Z,120
2017-03-26T13:04:53.786Z,120
2017-03-26T13:05:53.800Z,120
2017-03-26T13:06:54.088Z,120
2017-03-26T13:07:53.889Z,120
2017-03-26T13:08:53.308Z,115
2017-03-26T13:09:53.939Z,115
2017-03-26T13:10:53.041Z,115
2017-03-26T13:11:54.269Z,115
2017-03-26T13:12:53.734Z,115
2017-03-26T13:13:54.096Z,115
2017-03-26T13:14:54.116Z,110
2017-03-26T13:15:54.147Z,110
2017-03-26T13:16:54.129Z,110
2017-03-26T13:17:53.586Z,110
2017-03-26T13:18:53.947Z,110
2017-03-26T13:19:53.662Z,110
2017-03-26T13:20:54.325Z,110
2017-03-26T13:21:54.288Z,110
2017-03-26T13:22:53.783Z,105
2017-03-26T13:23:54.107Z,105
2017-03-26T13:24:54.144Z,105
2017-03-26T13:25:54.479Z,105
2017-03-26T13:26:54.451Z,105
2017-03-26T13:27:54.541Z,100
2017-03-26T13:28:54.291Z,95
2017-03-26T13:29:54.667Z,105
2017-03-26T13:30:54.343Z,95
2017-03-26T13:31:54.972Z,100
2017-03-26T13:32:54.409Z,100
2017-03-26T13:33:54.754Z,100
2017-03-26T13:34:54.171Z,100
2017-03-26T13:35:54.804Z,100
2017-03-26T13:36:56.605Z,100
2017-03-26T13:37:54.881Z,100
2017-03-26T13:38:54.608Z,95
2017-03-26T13:39:54.943Z,100
2017-03-26T13:40:54.662Z,100
2017-03-26T13:41:55.261Z,100
2017-03-26T13:42:54.740Z,100
2017-03-26T13:43:55.109Z,95
2017-03-26T13:44:55.102Z,95
2017-03-26T13:45:55.151Z,95
2017-03-26T13:46:55.116Z,95
2017-03-26T13:47:54.649Z,90
2017-03-26T13:48:54.930Z,95
2017-03-26T13:49:54.974Z,90
2017-03-26T13:50:55.301Z,85
2017-03-26T13:51:55.592Z,90
2017-03-26T13:52:54.749Z,80
2017-03-26T13:53:54.801Z,85
2017-03-26T13:54:55.117Z,85
2017-03-26T13:55:54.844Z,90
2017-03-26T13:56:55.128Z,85
2017-03-26T13:57:54.911Z,85
2017-03-26T13:58:55.261Z,85
2017-03-26T13:59:55.298Z,85
2017-03-26T14:00:55.638Z,85
2017-03-26T14:01:55.615Z,85
2017-03-26T14:02:55.701Z,85
2017-03-26T14:03:55.428Z,85
2017-03-26T14:04:55.779Z,85
2017-03-26T14:05:55.798Z,80
2017-03-26T14:06:56.077Z,80
2017-03-26T14:07:55.554Z,85
2017-03-26T14:08:55.585Z,85
2017-03-26T14:09:55.629Z,85
2017-03-26T14:10:55.979Z,80
2017-03-26T14:11:55.990Z,75
2017-03-26T14:12:55.412Z,80
2017-03-26T14:13:56.060Z,85
2017-03-26T14:14:55.781Z,85
2017-03-26T14:15:56.109Z,85
2017-03-26T14:16:56.402Z,85
2017-03-26T14:17:55.879Z,80
2017-03-26T14:18:55.606Z,80
2017-03-26T14:19:56.250Z,80
2017-03-26T14:20:55.969Z,80
2017-03-26T14:21:56.569Z,80
2017-03-26T14:22:56.356Z,80
2017-03-26T14:23:56.080Z,80
2017-03-26T14:24:56.088Z,75
2017-03-26T14:25:56.448Z,65